sensor_id;sensor_type;location;lat;lon;timestamp;P1;durP1;ratioP1;P2;durP2;ratioP2
50429;SDS011;36359;41.556;-8.418;2022-12-07T00:00:53;36.07;;;25.30;;
50429;SDS011;36359;41.556;-8.418;2022-12-07T00:03:20;30.53;;;24.20;;
50429;SDS011;36359;41.556;-8.418;2022-12-07T00:05:45;32.50;;;23.50;;
50429;SDS011;36359;41.556;-8.418;2022-12-07T00:08:11;35.43;;;27.20;;
50429;SDS011;36359;41.556;-8.418;2022-12-07T00:10:37;37.43;;;29.13;;
50429;SDS011;36359;41.556;-8.418;2022-12-07T00:13:03;38.60;;;28.03;;
50429;SDS011;36359;41.556;-8.418;2022-12-07T00:15:28;37.87;;;27.83;;
50429;SDS011;36359;41.556;-8.418;2022-12-07T00:17:54;37.33;;;28.50;;
50429;SDS011;36359;41.556;-8.418;2022-12-07T00:20:20;41.53;;;28.90;;
50429;SDS011;36359;41.556;-8.418;2022-12-07T00:22:45;37.47;;;28.70;;
50429;SDS011;36359;41.556;-8.418;2022-12-07T00:25:11;34.00;;;25.53;;
50429;SDS011;36359;41.556;-8.418;2022-12-07T00:27:38;44.37;;;34.63;;
50429;SDS011;36359;41.556;-8.418;2022-12-07T00:30:04;54.53;;;43.10;;
50429;SDS011;36359;41.556;-8.418;2022-12-07T00:32:30;53.77;;;42.23;;
50429;SDS011;36359;41.556;-8.418;2022-12-07T00:34:56;58.53;;;42.40;;
50429;SDS011;36359;41.556;-8.418;2022-12-07T00:37:21;65.60;;;52.57;;
50429;SDS011;36359;41.556;-8.418;2022-12-07T00:39:47;64.53;;;49.63;;
50429;SDS011;36359;41.556;-8.418;2022-12-07T00:42:13;73.80;;;55.70;;
50429;SDS011;36359;41.556;-8.418;2022-12-07T00:44:39;131.37;;;61.83;;
50429;SDS011;36359;41.556;-8.418;2022-12-07T00:47:04;75.33;;;51.47;;
50429;SDS011;36359;41.556;-8.418;2022-12-07T00:49:30;73.90;;;57.87;;
50429;SDS011;36359;41.556;-8.418;2022-12-07T00:51:56;99.60;;;59.53;;
50429;SDS011;36359;41.556;-8.418;2022-12-07T00:54:21;75.23;;;58.53;;
50429;SDS011;36359;41.556;-8.418;2022-12-07T00:56:47;80.30;;;64.40;;
50429;SDS011;36359;41.556;-8.418;2022-12-07T00:59:13;68.30;;;55.80;;
50429;SDS011;36359;41.556;-8.418;2022-12-07T01:01:42;70.13;;;59.63;;
50429;SDS011;36359;41.556;-8.418;2022-12-07T01:04:08;81.30;;;67.33;;
50429;SDS011;36359;41.556;-8.418;2022-12-07T01:06:33;80.20;;;62.53;;
50429;SDS011;36359;41.556;-8.418;2022-12-07T01:08:59;84.50;;;65.63;;
50429;SDS011;36359;41.556;-8.418;2022-12-07T01:11:27;71.50;;;58.73;;
50429;SDS011;36359;41.556;-8.418;2022-12-07T01:13:55;78.77;;;64.90;;
50429;SDS011;36359;41.556;-8.418;2022-12-07T01:16:22;71.37;;;57.57;;
50429;SDS011;36359;41.556;-8.418;2022-12-07T01:18:51;71.80;;;55.17;;
50429;SDS011;36359;41.556;-8.418;2022-12-07T01:21:22;44.97;;;36.27;;
50429;SDS011;36359;41.556;-8.418;2022-12-07T01:23:50;70.83;;;56.03;;
50429;SDS011;36359;41.556;-8.418;2022-12-07T01:26:21;59.00;;;44.53;;
50429;SDS011;36359;41.556;-8.418;2022-12-07T01:28:48;64.27;;;53.00;;
50429;SDS011;36359;41.556;-8.418;2022-12-07T01:31:15;58.90;;;45.77;;
50429;SDS011;36359;41.556;-8.418;2022-12-07T01:33:44;66.67;;;50.50;;
50429;SDS011;36359;41.556;-8.418;2022-12-07T01:38:43;59.65;;;50.22;;
50429;SDS011;36359;41.556;-8.418;2022-12-07T01:41:10;61.13;;;49.17;;
50429;SDS011;36359;41.556;-8.418;2022-12-07T01:43:36;60.27;;;49.63;;
50429;SDS011;36359;41.556;-8.418;2022-12-07T01:46:02;61.37;;;48.27;;
50429;SDS011;36359;41.556;-8.418;2022-12-07T01:48:33;56.07;;;44.70;;
50429;SDS011;36359;41.556;-8.418;2022-12-07T01:51:04;51.33;;;42.53;;
50429;SDS011;36359;41.556;-8.418;2022-12-07T01:53:37;54.40;;;42.17;;
50429;SDS011;36359;41.556;-8.418;2022-12-07T01:56:08;48.93;;;38.30;;
50429;SDS011;36359;41.556;-8.418;2022-12-07T01:58:39;51.73;;;39.47;;
50429;SDS011;36359;41.556;-8.418;2022-12-07T02:01:04;45.50;;;37.47;;
50429;SDS011;36359;41.556;-8.418;2022-12-07T02:03:32;44.60;;;37.57;;
50429;SDS011;36359;41.556;-8.418;2022-12-07T02:06:04;45.87;;;36.67;;
50429;SDS011;36359;41.556;-8.418;2022-12-07T02:08:31;41.80;;;34.27;;
50429;SDS011;36359;41.556;-8.418;2022-12-07T02:10:57;43.83;;;35.90;;
50429;SDS011;36359;41.556;-8.418;2022-12-07T02:13:31;43.30;;;35.67;;
50429;SDS011;36359;41.556;-8.418;2022-12-07T02:18:51;45.20;;;36.33;;
50429;SDS011;36359;41.556;-8.418;2022-12-07T02:35:06;27.13;;;21.17;;
50429;SDS011;36359;41.556;-8.418;2022-12-07T02:40:06;27.57;;;20.17;;
50429;SDS011;36359;41.556;-8.418;2022-12-07T02:42:41;23.37;;;19.67;;
50429;SDS011;36359;41.556;-8.418;2022-12-07T02:45:12;23.48;;;18.45;;
50429;SDS011;36359;41.556;-8.418;2022-12-07T02:47:41;19.98;;;17.23;;
50429;SDS011;36359;41.556;-8.418;2022-12-07T02:50:08;23.87;;;17.57;;
50429;SDS011;36359;41.556;-8.418;2022-12-07T02:52:35;26.00;;;19.47;;
50429;SDS011;36359;41.556;-8.418;2022-12-07T02:55:00;28.33;;;21.93;;
50429;SDS011;36359;41.556;-8.418;2022-12-07T03:00:41;25.87;;;21.57;;
50429;SDS011;36359;41.556;-8.418;2022-12-07T03:03:17;25.47;;;20.87;;
50429;SDS011;36359;41.556;-8.418;2022-12-07T03:06:02;25.33;;;20.80;;
50429;SDS011;36359;41.556;-8.418;2022-12-07T03:08:59;26.33;;;20.93;;
50429;SDS011;36359;41.556;-8.418;2022-12-07T03:11:45;30.07;;;22.83;;
50429;SDS011;36359;41.556;-8.418;2022-12-07T03:19:48;26.00;;;19.90;;
50429;SDS011;36359;41.556;-8.418;2022-12-07T03:22:18;22.77;;;18.80;;
50429;SDS011;36359;41.556;-8.418;2022-12-07T03:24:47;21.60;;;17.63;;
50429;SDS011;36359;41.556;-8.418;2022-12-07T03:27:24;22.17;;;18.17;;
50429;SDS011;36359;41.556;-8.418;2022-12-07T03:29:55;21.03;;;17.23;;
50429;SDS011;36359;41.556;-8.418;2022-12-07T03:32:30;20.23;;;17.17;;
50429;SDS011;36359;41.556;-8.418;2022-12-07T03:35:08;20.05;;;17.23;;
50429;SDS011;36359;41.556;-8.418;2022-12-07T03:37:55;20.33;;;16.87;;
50429;SDS011;36359;41.556;-8.418;2022-12-07T03:40:39;24.35;;;18.70;;
50429;SDS011;36359;41.556;-8.418;2022-12-07T03:43:10;24.90;;;18.43;;
50429;SDS011;36359;41.556;-8.418;2022-12-07T03:45:43;24.60;;;19.27;;
50429;SDS011;36359;41.556;-8.418;2022-12-07T03:48:22;23.35;;;18.80;;
50429;SDS011;36359;41.556;-8.418;2022-12-07T03:53:40;25.07;;;20.33;;
50429;SDS011;36359;41.556;-8.418;2022-12-07T03:56:12;28.07;;;20.73;;
50429;SDS011;36359;41.556;-8.418;2022-12-07T03:58:38;25.90;;;20.20;;
50429;SDS011;36359;41.556;-8.418;2022-12-07T04:01:06;24.83;;;22.03;;
50429;SDS011;36359;41.556;-8.418;2022-12-07T04:03:31;30.60;;;26.07;;
50429;SDS011;36359;41.556;-8.418;2022-12-07T04:05:57;31.40;;;25.07;;
50429;SDS011;36359;41.556;-8.418;2022-12-07T04:08:24;27.27;;;22.53;;
50429;SDS011;36359;41.556;-8.418;2022-12-07T04:10:50;28.53;;;24.30;;
50429;SDS011;36359;41.556;-8.418;2022-12-07T04:13:16;32.10;;;28.60;;
50429;SDS011;36359;41.556;-8.418;2022-12-07T04:15:42;35.07;;;30.30;;
50429;SDS011;36359;41.556;-8.418;2022-12-07T04:18:08;38.03;;;33.00;;
50429;SDS011;36359;41.556;-8.418;2022-12-07T04:20:33;40.13;;;35.50;;
50429;SDS011;36359;41.556;-8.418;2022-12-07T04:22:59;41.50;;;37.03;;
50429;SDS011;36359;41.556;-8.418;2022-12-07T04:25:25;41.77;;;37.47;;
50429;SDS011;36359;41.556;-8.418;2022-12-07T04:27:51;45.77;;;40.97;;
50429;SDS011;36359;41.556;-8.418;2022-12-07T04:30:17;40.00;;;35.70;;
50429;SDS011;36359;41.556;-8.418;2022-12-07T04:32:44;41.13;;;36.53;;
50429;SDS011;36359;41.556;-8.418;2022-12-07T04:35:10;44.10;;;38.10;;
50429;SDS011;36359;41.556;-8.418;2022-12-07T04:37:35;37.70;;;33.73;;
50429;SDS011;36359;41.556;-8.418;2022-12-07T04:40:04;37.17;;;32.73;;
50429;SDS011;36359;41.556;-8.418;2022-12-07T04:42:32;35.10;;;31.40;;
50429;SDS011;36359;41.556;-8.418;2022-12-07T04:44:58;37.43;;;33.43;;
50429;SDS011;36359;41.556;-8.418;2022-12-07T04:47:24;35.70;;;31.90;;
50429;SDS011;36359;41.556;-8.418;2022-12-07T04:49:49;34.73;;;31.00;;
50429;SDS011;36359;41.556;-8.418;2022-12-07T04:52:15;32.17;;;28.67;;
50429;SDS011;36359;41.556;-8.418;2022-12-07T04:54:41;32.80;;;29.03;;
50429;SDS011;36359;41.556;-8.418;2022-12-07T04:57:06;33.17;;;29.33;;
50429;SDS011;36359;41.556;-8.418;2022-12-07T04:59:32;31.77;;;28.30;;
50429;SDS011;36359;41.556;-8.418;2022-12-07T05:01:58;32.47;;;28.90;;
50429;SDS011;36359;41.556;-8.418;2022-12-07T05:04:24;34.07;;;29.13;;
50429;SDS011;36359;41.556;-8.418;2022-12-07T05:06:49;38.23;;;32.83;;
50429;SDS011;36359;41.556;-8.418;2022-12-07T05:09:15;37.63;;;32.63;;
50429;SDS011;36359;41.556;-8.418;2022-12-07T05:11:41;39.93;;;32.47;;
50429;SDS011;36359;41.556;-8.418;2022-12-07T05:14:11;38.67;;;30.87;;
50429;SDS011;36359;41.556;-8.418;2022-12-07T05:16:45;36.13;;;30.00;;
50429;SDS011;36359;41.556;-8.418;2022-12-07T05:19:13;33.43;;;29.10;;
50429;SDS011;36359;41.556;-8.418;2022-12-07T05:21:40;30.67;;;27.40;;
50429;SDS011;36359;41.556;-8.418;2022-12-07T05:24:06;31.57;;;25.73;;
50429;SDS011;36359;41.556;-8.418;2022-12-07T05:26:33;34.03;;;28.43;;
50429;SDS011;36359;41.556;-8.418;2022-12-07T05:28:59;32.93;;;27.63;;
50429;SDS011;36359;41.556;-8.418;2022-12-07T05:31:25;29.93;;;25.90;;
50429;SDS011;36359;41.556;-8.418;2022-12-07T05:33:52;30.67;;;25.97;;
50429;SDS011;36359;41.556;-8.418;2022-12-07T05:36:18;33.23;;;27.27;;
50429;SDS011;36359;41.556;-8.418;2022-12-07T05:38:45;31.53;;;26.80;;
50429;SDS011;36359;41.556;-8.418;2022-12-07T05:41:12;29.73;;;26.53;;
50429;SDS011;36359;41.556;-8.418;2022-12-07T05:43:59;27.83;;;23.67;;
50429;SDS011;36359;41.556;-8.418;2022-12-07T05:46:25;29.50;;;25.47;;
50429;SDS011;36359;41.556;-8.418;2022-12-07T05:48:50;23.37;;;18.50;;
50429;SDS011;36359;41.556;-8.418;2022-12-07T05:51:16;22.20;;;17.23;;
50429;SDS011;36359;41.556;-8.418;2022-12-07T05:53:42;29.90;;;18.50;;
50429;SDS011;36359;41.556;-8.418;2022-12-07T05:56:08;21.00;;;17.87;;
50429;SDS011;36359;41.556;-8.418;2022-12-07T05:58:34;22.10;;;18.57;;
50429;SDS011;36359;41.556;-8.418;2022-12-07T06:01:18;26.57;;;18.60;;
50429;SDS011;36359;41.556;-8.418;2022-12-07T06:03:44;22.07;;;18.27;;
50429;SDS011;36359;41.556;-8.418;2022-12-07T06:06:10;21.80;;;18.63;;
50429;SDS011;36359;41.556;-8.418;2022-12-07T06:08:36;21.13;;;17.87;;
50429;SDS011;36359;41.556;-8.418;2022-12-07T06:11:02;19.93;;;17.73;;
50429;SDS011;36359;41.556;-8.418;2022-12-07T06:13:46;18.53;;;15.73;;
50429;SDS011;36359;41.556;-8.418;2022-12-07T06:16:12;21.93;;;16.70;;
50429;SDS011;36359;41.556;-8.418;2022-12-07T06:18:38;17.80;;;15.77;;
50429;SDS011;36359;41.556;-8.418;2022-12-07T06:21:03;17.73;;;15.83;;
50429;SDS011;36359;41.556;-8.418;2022-12-07T06:23:29;21.13;;;17.03;;
50429;SDS011;36359;41.556;-8.418;2022-12-07T06:25:55;18.30;;;15.67;;
50429;SDS011;36359;41.556;-8.418;2022-12-07T06:28:24;17.90;;;15.77;;
50429;SDS011;36359;41.556;-8.418;2022-12-07T06:30:59;17.73;;;14.27;;
50429;SDS011;36359;41.556;-8.418;2022-12-07T06:33:26;18.80;;;14.53;;
50429;SDS011;36359;41.556;-8.418;2022-12-07T06:35:53;15.17;;;12.70;;
50429;SDS011;36359;41.556;-8.418;2022-12-07T06:38:19;13.63;;;12.03;;
50429;SDS011;36359;41.556;-8.418;2022-12-07T06:40:44;13.80;;;12.40;;
50429;SDS011;36359;41.556;-8.418;2022-12-07T06:43:10;13.97;;;12.50;;
50429;SDS011;36359;41.556;-8.418;2022-12-07T06:45:36;14.90;;;13.30;;
50429;SDS011;36359;41.556;-8.418;2022-12-07T06:48:01;13.43;;;11.97;;
50429;SDS011;36359;41.556;-8.418;2022-12-07T06:50:27;13.97;;;12.03;;
50429;SDS011;36359;41.556;-8.418;2022-12-07T06:52:53;14.63;;;12.23;;
50429;SDS011;36359;41.556;-8.418;2022-12-07T06:55:19;14.10;;;12.10;;
50429;SDS011;36359;41.556;-8.418;2022-12-07T06:57:44;14.03;;;11.63;;
50429;SDS011;36359;41.556;-8.418;2022-12-07T07:00:10;15.20;;;11.93;;
50429;SDS011;36359;41.556;-8.418;2022-12-07T07:02:37;12.70;;;10.73;;
50429;SDS011;36359;41.556;-8.418;2022-12-07T07:05:02;14.03;;;11.20;;
50429;SDS011;36359;41.556;-8.418;2022-12-07T07:07:28;12.83;;;11.43;;
50429;SDS011;36359;41.556;-8.418;2022-12-07T07:09:54;18.40;;;14.33;;
50429;SDS011;36359;41.556;-8.418;2022-12-07T07:12:20;14.47;;;11.93;;
50429;SDS011;36359;41.556;-8.418;2022-12-07T07:14:46;15.67;;;12.13;;
50429;SDS011;36359;41.556;-8.418;2022-12-07T07:17:12;14.23;;;10.03;;
50429;SDS011;36359;41.556;-8.418;2022-12-07T07:19:38;12.20;;;10.40;;
50429;SDS011;36359;41.556;-8.418;2022-12-07T07:22:04;15.03;;;11.33;;
50429;SDS011;36359;41.556;-8.418;2022-12-07T07:24:30;14.20;;;9.93;;
50429;SDS011;36359;41.556;-8.418;2022-12-07T07:26:55;14.30;;;10.47;;
50429;SDS011;36359;41.556;-8.418;2022-12-07T07:29:21;12.13;;;9.93;;
50429;SDS011;36359;41.556;-8.418;2022-12-07T07:31:47;15.00;;;10.97;;
50429;SDS011;36359;41.556;-8.418;2022-12-07T07:34:13;10.63;;;9.53;;
50429;SDS011;36359;41.556;-8.418;2022-12-07T07:36:38;15.33;;;11.30;;
50429;SDS011;36359;41.556;-8.418;2022-12-07T07:39:04;14.57;;;11.30;;
50429;SDS011;36359;41.556;-8.418;2022-12-07T07:41:30;12.47;;;9.73;;
50429;SDS011;36359;41.556;-8.418;2022-12-07T07:43:56;9.90;;;8.23;;
50429;SDS011;36359;41.556;-8.418;2022-12-07T07:46:23;9.57;;;7.80;;
50429;SDS011;36359;41.556;-8.418;2022-12-07T07:48:48;9.63;;;7.80;;
50429;SDS011;36359;41.556;-8.418;2022-12-07T07:51:14;8.20;;;6.57;;
50429;SDS011;36359;41.556;-8.418;2022-12-07T07:53:40;7.73;;;6.60;;
50429;SDS011;36359;41.556;-8.418;2022-12-07T07:56:06;8.40;;;6.50;;
50429;SDS011;36359;41.556;-8.418;2022-12-07T07:58:31;8.67;;;6.70;;
50429;SDS011;36359;41.556;-8.418;2022-12-07T08:01:02;8.67;;;6.77;;
50429;SDS011;36359;41.556;-8.418;2022-12-07T08:03:37;7.90;;;6.97;;
50429;SDS011;36359;41.556;-8.418;2022-12-07T08:06:03;8.97;;;6.80;;
50429;SDS011;36359;41.556;-8.418;2022-12-07T08:08:29;14.67;;;12.90;;
50429;SDS011;36359;41.556;-8.418;2022-12-07T08:10:57;20.03;;;17.93;;
50429;SDS011;36359;41.556;-8.418;2022-12-07T08:13:26;21.33;;;18.60;;
50429;SDS011;36359;41.556;-8.418;2022-12-07T08:15:53;37.53;;;21.83;;
50429;SDS011;36359;41.556;-8.418;2022-12-07T08:18:19;25.60;;;20.97;;
50429;SDS011;36359;41.556;-8.418;2022-12-07T08:20:45;31.73;;;23.00;;
50429;SDS011;36359;41.556;-8.418;2022-12-07T08:23:11;35.10;;;22.27;;
50429;SDS011;36359;41.556;-8.418;2022-12-07T08:25:38;39.50;;;26.40;;
50429;SDS011;36359;41.556;-8.418;2022-12-07T08:28:04;39.37;;;22.67;;
50429;SDS011;36359;41.556;-8.418;2022-12-07T08:30:30;24.67;;;21.53;;
50429;SDS011;36359;41.556;-8.418;2022-12-07T08:32:57;25.17;;;21.23;;
50429;SDS011;36359;41.556;-8.418;2022-12-07T08:35:23;29.87;;;25.57;;
50429;SDS011;36359;41.556;-8.418;2022-12-07T08:37:49;30.20;;;26.93;;
50429;SDS011;36359;41.556;-8.418;2022-12-07T08:40:14;31.57;;;26.63;;
50429;SDS011;36359;41.556;-8.418;2022-12-07T08:42:50;18.97;;;14.00;;
50429;SDS011;36359;41.556;-8.418;2022-12-07T08:45:17;29.47;;;23.07;;
50429;SDS011;36359;41.556;-8.418;2022-12-07T08:47:51;16.93;;;13.33;;
50429;SDS011;36359;41.556;-8.418;2022-12-07T08:50:27;20.20;;;17.87;;
50429;SDS011;36359;41.556;-8.418;2022-12-07T08:52:55;22.77;;;17.90;;
50429;SDS011;36359;41.556;-8.418;2022-12-07T08:55:23;20.97;;;18.60;;
50429;SDS011;36359;41.556;-8.418;2022-12-07T08:57:50;30.20;;;25.80;;
50429;SDS011;36359;41.556;-8.418;2022-12-07T09:00:16;30.60;;;27.20;;
50429;SDS011;36359;41.556;-8.418;2022-12-07T09:02:43;31.43;;;26.63;;
50429;SDS011;36359;41.556;-8.418;2022-12-07T09:05:09;31.00;;;27.70;;
50429;SDS011;36359;41.556;-8.418;2022-12-07T09:07:35;30.60;;;27.27;;
50429;SDS011;36359;41.556;-8.418;2022-12-07T09:10:03;32.23;;;28.80;;
50429;SDS011;36359;41.556;-8.418;2022-12-07T09:12:30;25.17;;;22.43;;
50429;SDS011;36359;41.556;-8.418;2022-12-07T09:14:56;26.13;;;21.13;;
50429;SDS011;36359;41.556;-8.418;2022-12-07T09:17:22;22.83;;;14.60;;
50429;SDS011;36359;41.556;-8.418;2022-12-07T09:19:48;19.57;;;14.60;;
50429;SDS011;36359;41.556;-8.418;2022-12-07T09:22:14;18.43;;;15.60;;
50429;SDS011;36359;41.556;-8.418;2022-12-07T09:24:40;15.77;;;12.37;;
50429;SDS011;36359;41.556;-8.418;2022-12-07T09:27:06;18.50;;;12.80;;
50429;SDS011;36359;41.556;-8.418;2022-12-07T09:29:31;15.93;;;11.83;;
50429;SDS011;36359;41.556;-8.418;2022-12-07T09:31:57;14.53;;;10.47;;
50429;SDS011;36359;41.556;-8.418;2022-12-07T09:34:23;18.40;;;12.00;;
50429;SDS011;36359;41.556;-8.418;2022-12-07T09:36:49;17.92;;;11.63;;
50429;SDS011;36359;41.556;-8.418;2022-12-07T09:39:14;19.43;;;11.30;;
50429;SDS011;36359;41.556;-8.418;2022-12-07T09:41:41;17.03;;;10.93;;
50429;SDS011;36359;41.556;-8.418;2022-12-07T09:44:17;17.98;;;10.70;;
50429;SDS011;36359;41.556;-8.418;2022-12-07T09:46:50;21.20;;;10.65;;
50429;SDS011;36359;41.556;-8.418;2022-12-07T09:49:22;17.17;;;11.05;;
50429;SDS011;36359;41.556;-8.418;2022-12-07T09:52:15;18.90;;;11.30;;
50429;SDS011;36359;41.556;-8.418;2022-12-07T09:54:46;16.73;;;11.45;;
50429;SDS011;36359;41.556;-8.418;2022-12-07T09:57:32;14.88;;;9.52;;
50429;SDS011;36359;41.556;-8.418;2022-12-07T10:00:01;12.93;;;9.30;;
50429;SDS011;36359;41.556;-8.418;2022-12-07T10:02:38;12.25;;;8.07;;
50429;SDS011;36359;41.556;-8.418;2022-12-07T10:05:09;42.80;;;36.23;;
50429;SDS011;36359;41.556;-8.418;2022-12-07T10:07:40;31.85;;;21.70;;
50429;SDS011;36359;41.556;-8.418;2022-12-07T10:10:12;31.58;;;24.08;;
50429;SDS011;36359;41.556;-8.418;2022-12-07T10:13:00;29.57;;;16.37;;
50429;SDS011;36359;41.556;-8.418;2022-12-07T10:15:40;35.58;;;26.13;;
50429;SDS011;36359;41.556;-8.418;2022-12-07T10:18:16;32.58;;;21.33;;
50429;SDS011;36359;41.556;-8.418;2022-12-07T10:20:48;31.20;;;21.10;;
50429;SDS011;36359;41.556;-8.418;2022-12-07T10:23:16;35.13;;;21.42;;
50429;SDS011;36359;41.556;-8.418;2022-12-07T10:25:43;27.92;;;21.17;;
50429;SDS011;36359;41.556;-8.418;2022-12-07T10:28:11;35.00;;;22.38;;
50429;SDS011;36359;41.556;-8.418;2022-12-07T10:30:49;34.05;;;24.33;;
50429;SDS011;36359;41.556;-8.418;2022-12-07T10:33:32;33.85;;;25.92;;
50429;SDS011;36359;41.556;-8.418;2022-12-07T10:36:01;210.30;;;103.68;;
50429;SDS011;36359;41.556;-8.418;2022-12-07T10:39:10;31.52;;;20.75;;
50429;SDS011;36359;41.556;-8.418;2022-12-07T10:44:41;170.88;;;84.28;;
50429;SDS011;36359;41.556;-8.418;2022-12-07T10:50:13;141.38;;;66.50;;
50429;SDS011;36359;41.556;-8.418;2022-12-07T10:56:00;41.70;;;32.15;;
50429;SDS011;36359;41.556;-8.418;2022-12-07T11:06:39;31.67;;;26.95;;
50429;SDS011;36359;41.556;-8.418;2022-12-07T11:11:59;33.65;;;25.38;;
50429;SDS011;36359;41.556;-8.418;2022-12-07T11:14:36;105.82;;;54.40;;
50429;SDS011;36359;41.556;-8.418;2022-12-07T11:17:22;69.03;;;40.97;;
50429;SDS011;36359;41.556;-8.418;2022-12-07T11:28:28;39.85;;;28.27;;
50429;SDS011;36359;41.556;-8.418;2022-12-07T11:33:49;40.22;;;26.73;;
50429;SDS011;36359;41.556;-8.418;2022-12-07T11:39:26;20.00;;;13.75;;
50429;SDS011;36359;41.556;-8.418;2022-12-07T11:42:14;12.57;;;8.95;;
50429;SDS011;36359;41.556;-8.418;2022-12-07T11:47:23;16.08;;;7.68;;
50429;SDS011;36359;41.556;-8.418;2022-12-07T11:55:02;20.30;;;13.25;;
50429;SDS011;36359;41.556;-8.418;2022-12-07T11:57:41;14.10;;;7.43;;
50429;SDS011;36359;41.556;-8.418;2022-12-07T12:00:14;23.50;;;15.57;;
50429;SDS011;36359;41.556;-8.418;2022-12-07T12:02:50;23.98;;;14.00;;
50429;SDS011;36359;41.556;-8.418;2022-12-07T12:05:24;18.77;;;11.70;;
50429;SDS011;36359;41.556;-8.418;2022-12-07T12:07:58;14.68;;;9.10;;
50429;SDS011;36359;41.556;-8.418;2022-12-07T12:19:58;6.60;;;3.00;;
50429;SDS011;36359;41.556;-8.418;2022-12-07T12:22:42;6.45;;;3.95;;
50429;SDS011;36359;41.556;-8.418;2022-12-07T12:27:51;3.55;;;2.35;;
50429;SDS011;36359;41.556;-8.418;2022-12-07T12:30:26;7.65;;;3.67;;
50429;SDS011;36359;41.556;-8.418;2022-12-07T12:33:04;10.57;;;6.05;;
50429;SDS011;36359;41.556;-8.418;2022-12-07T12:35:32;2.83;;;1.40;;
50429;SDS011;36359;41.556;-8.418;2022-12-07T12:40:52;9.87;;;4.87;;
50429;SDS011;36359;41.556;-8.418;2022-12-07T12:51:44;5.50;;;2.50;;
50429;SDS011;36359;41.556;-8.418;2022-12-07T12:59:28;6.55;;;4.10;;
50429;SDS011;36359;41.556;-8.418;2022-12-07T13:04:57;6.68;;;3.65;;
50429;SDS011;36359;41.556;-8.418;2022-12-07T13:12:58;6.82;;;3.38;;
50429;SDS011;36359;41.556;-8.418;2022-12-07T13:15:46;3.88;;;1.70;;
50429;SDS011;36359;41.556;-8.418;2022-12-07T13:18:38;6.95;;;3.00;;
50429;SDS011;36359;41.556;-8.418;2022-12-07T13:23:35;4.57;;;2.30;;
50429;SDS011;36359;41.556;-8.418;2022-12-07T13:26:14;6.13;;;2.22;;
50429;SDS011;36359;41.556;-8.418;2022-12-07T13:28:49;7.07;;;3.83;;
50429;SDS011;36359;41.556;-8.418;2022-12-07T13:31:18;9.52;;;5.53;;
50429;SDS011;36359;41.556;-8.418;2022-12-07T13:33:57;5.85;;;3.28;;
50429;SDS011;36359;41.556;-8.418;2022-12-07T13:36:27;6.30;;;3.10;;
50429;SDS011;36359;41.556;-8.418;2022-12-07T13:39:20;6.75;;;3.13;;
50429;SDS011;36359;41.556;-8.418;2022-12-07T13:41:57;6.40;;;3.28;;
50429;SDS011;36359;41.556;-8.418;2022-12-07T13:44:26;8.20;;;3.90;;
50429;SDS011;36359;41.556;-8.418;2022-12-07T13:46:58;8.85;;;5.38;;
50429;SDS011;36359;41.556;-8.418;2022-12-07T13:49:39;7.93;;;4.13;;
50429;SDS011;36359;41.556;-8.418;2022-12-07T13:52:14;4.70;;;2.40;;
50429;SDS011;36359;41.556;-8.418;2022-12-07T13:57:14;3.72;;;1.98;;
50429;SDS011;36359;41.556;-8.418;2022-12-07T13:59:41;4.82;;;2.78;;
50429;SDS011;36359;41.556;-8.418;2022-12-07T14:02:25;4.95;;;2.35;;
50429;SDS011;36359;41.556;-8.418;2022-12-07T14:05:06;5.55;;;2.97;;
50429;SDS011;36359;41.556;-8.418;2022-12-07T14:07:54;4.40;;;2.15;;
50429;SDS011;36359;41.556;-8.418;2022-12-07T14:11:14;6.10;;;2.30;;
50429;SDS011;36359;41.556;-8.418;2022-12-07T14:13:38;5.38;;;2.80;;
50429;SDS011;36359;41.556;-8.418;2022-12-07T14:18:47;3.55;;;2.22;;
50429;SDS011;36359;41.556;-8.418;2022-12-07T14:23:39;6.35;;;1.83;;
50429;SDS011;36359;41.556;-8.418;2022-12-07T14:26:15;4.85;;;1.75;;
50429;SDS011;36359;41.556;-8.418;2022-12-07T14:28:45;4.25;;;2.05;;
50429;SDS011;36359;41.556;-8.418;2022-12-07T14:31:13;6.75;;;1.98;;
50429;SDS011;36359;41.556;-8.418;2022-12-07T14:33:41;5.70;;;3.00;;
50429;SDS011;36359;41.556;-8.418;2022-12-07T14:36:11;4.22;;;2.45;;
50429;SDS011;36359;41.556;-8.418;2022-12-07T14:38:38;4.05;;;2.10;;
50429;SDS011;36359;41.556;-8.418;2022-12-07T14:41:05;5.75;;;2.60;;
50429;SDS011;36359;41.556;-8.418;2022-12-07T14:43:56;6.00;;;2.70;;
50429;SDS011;36359;41.556;-8.418;2022-12-07T14:46:22;6.25;;;3.00;;
50429;SDS011;36359;41.556;-8.418;2022-12-07T14:48:48;4.55;;;1.55;;
50429;SDS011;36359;41.556;-8.418;2022-12-07T14:51:13;5.25;;;2.70;;
50429;SDS011;36359;41.556;-8.418;2022-12-07T14:53:41;4.97;;;3.13;;
50429;SDS011;36359;41.556;-8.418;2022-12-07T14:56:09;3.67;;;1.80;;
50429;SDS011;36359;41.556;-8.418;2022-12-07T14:58:35;3.92;;;2.20;;
50429;SDS011;36359;41.556;-8.418;2022-12-07T15:01:01;3.90;;;2.05;;
50429;SDS011;36359;41.556;-8.418;2022-12-07T15:03:27;4.85;;;2.40;;
50429;SDS011;36359;41.556;-8.418;2022-12-07T15:05:52;8.60;;;3.58;;
50429;SDS011;36359;41.556;-8.418;2022-12-07T15:08:18;5.65;;;2.88;;
50429;SDS011;36359;41.556;-8.418;2022-12-07T15:10:44;6.63;;;3.70;;
50429;SDS011;36359;41.556;-8.418;2022-12-07T15:13:10;7.25;;;3.33;;
50429;SDS011;36359;41.556;-8.418;2022-12-07T15:15:54;5.60;;;2.85;;
50429;SDS011;36359;41.556;-8.418;2022-12-07T15:18:20;5.65;;;2.30;;
50429;SDS011;36359;41.556;-8.418;2022-12-07T15:20:47;5.55;;;3.53;;
50429;SDS011;36359;41.556;-8.418;2022-12-07T15:23:13;5.25;;;3.33;;
50429;SDS011;36359;41.556;-8.418;2022-12-07T15:25:40;8.10;;;3.45;;
50429;SDS011;36359;41.556;-8.418;2022-12-07T15:28:06;5.45;;;2.67;;
50429;SDS011;36359;41.556;-8.418;2022-12-07T15:30:32;5.85;;;2.40;;
50429;SDS011;36359;41.556;-8.418;2022-12-07T15:32:58;3.92;;;2.13;;
50429;SDS011;36359;41.556;-8.418;2022-12-07T15:35:24;4.15;;;2.28;;
50429;SDS011;36359;41.556;-8.418;2022-12-07T15:37:49;3.63;;;2.10;;
50429;SDS011;36359;41.556;-8.418;2022-12-07T15:40:15;5.88;;;1.83;;
50429;SDS011;36359;41.556;-8.418;2022-12-07T15:42:41;4.13;;;2.50;;
50429;SDS011;36359;41.556;-8.418;2022-12-07T15:45:07;3.63;;;1.80;;
50429;SDS011;36359;41.556;-8.418;2022-12-07T15:47:39;3.85;;;2.20;;
50429;SDS011;36359;41.556;-8.418;2022-12-07T15:50:07;4.63;;;2.13;;
50429;SDS011;36359;41.556;-8.418;2022-12-07T15:52:35;4.45;;;2.60;;
50429;SDS011;36359;41.556;-8.418;2022-12-07T15:55:01;6.18;;;2.90;;
50429;SDS011;36359;41.556;-8.418;2022-12-07T15:57:31;5.93;;;2.75;;
50429;SDS011;36359;41.556;-8.418;2022-12-07T15:59:57;9.18;;;3.17;;
50429;SDS011;36359;41.556;-8.418;2022-12-07T16:02:23;4.28;;;2.42;;
50429;SDS011;36359;41.556;-8.418;2022-12-07T16:04:49;3.58;;;2.38;;
50429;SDS011;36359;41.556;-8.418;2022-12-07T16:07:16;5.97;;;2.10;;
50429;SDS011;36359;41.556;-8.418;2022-12-07T16:09:43;3.95;;;1.73;;
50429;SDS011;36359;41.556;-8.418;2022-12-07T16:12:09;4.15;;;2.42;;
50429;SDS011;36359;41.556;-8.418;2022-12-07T16:14:36;5.10;;;3.00;;
50429;SDS011;36359;41.556;-8.418;2022-12-07T16:17:02;4.88;;;2.65;;
50429;SDS011;36359;41.556;-8.418;2022-12-07T16:19:29;4.60;;;2.90;;
50429;SDS011;36359;41.556;-8.418;2022-12-07T16:21:56;4.68;;;3.05;;
50429;SDS011;36359;41.556;-8.418;2022-12-07T16:24:22;6.57;;;4.18;;
50429;SDS011;36359;41.556;-8.418;2022-12-07T16:26:50;6.10;;;3.45;;
50429;SDS011;36359;41.556;-8.418;2022-12-07T16:29:16;6.53;;;4.65;;
50429;SDS011;36359;41.556;-8.418;2022-12-07T16:31:43;8.15;;;5.03;;